LGAVLGSK

Guest
Details From LGAV - Athens Intl Airport Elefterios Venizel
To LGSK - Skiathos Alexandros Papadiamantis
Flight Number -
Tags generated
Created
Modified
Stats Distance 77 nm / 143 km
Max Altitude 5,700 ft / 1,737 m
Waypoints 3
Social Downloads 14
Likes 0
Share VATSIM

Download

Looking for another format? Having issues loading an existing format? Contact us
Advertisement - Login to hide

Notes

Basic altitude profile: - Ascent Rate: 2500ft/min - Ascent Speed: 250kts - Cruise Altitude: 35000ft - Cruise Speed: 420kts - Descent Rate: 1500ft/min - Descent Speed: 250kts Options: - Use NATs: yes - Use PACOTS: yes - Use low airways: yes - Use high airways: yes

Route

LGAV OMIRO LGSK

ID Type Via Altitude Latitude Longitude Leg Dist Tot Dist Heading (true) Name
O LGAV APT - 0 ft / 0 m 37.93636˚ 23.94447˚ - 0 nm - Athens Intl Airport Elefterios Venizel
OMIRO FIX - 5,700 ft / 1,737 m 38.75000˚ 23.66722˚ 50 nm 50 nm 345° / 345° -
O LGSK APT - 0 ft / 0 m 39.17710˚ 23.50368˚ 26 nm 77 nm 343° / 343° Skiathos Alexandros Papadiamantis

Altitude Profile

Advertisement - Login to hide

LGAV

Details ICAO LGAV (ATH)
Name Athens Intl Airport Elefterios Venizel
Region Greece
Timezone Europe/Athens (UTC+2.0)
Stats Elevation 308 ft / 94 m (AMSL)
Location 37.936357° 23.944470°
Runways 2
Magnetic Variation 4.483° E

METAR

LGAV 121550Z 22007KT 9999 FEW035 13/09 Q1023 NOSIG

Decode

TAF

TAF TAF LGAV 121100Z 1212/1312 20010KT 9999 FEW035 PROB30 1303/1306 3000 BR BKN006

Decode

Departure Runways

ID Width Length Bearing (true) Bearing (mag) Surface Threshold Offset Overrun Length
03L 148 ft / 45 m 12,474 ft / 3,802 m 36.51° 32.03° Asphalt 984 ft / 300 m 393 ft / 120 m
03R 148 ft / 45 m 13,131 ft / 4,002 m 36.52° 32.04° Asphalt 984 ft / 300 m 393 ft / 120 m
21L 148 ft / 45 m 13,131 ft / 4,002 m 216.54° 212.06° Asphalt 984 ft / 300 m 393 ft / 120 m
21R 148 ft / 45 m 12,474 ft / 3,802 m 216.53° 212.05° Asphalt 984 ft / 300 m 393 ft / 120 m

LGSK

Details ICAO LGSK (JSI)
Name Skiathos Alexandros Papadiamantis
Region Greece
Timezone Europe/Athens (UTC+2.0)
Stats Elevation 54 ft / 16 m (AMSL)
Location 39.177100° 23.503677°
Runways 1
Magnetic Variation 4.553° E

METAR

LGSK 121550Z 00000KT CAVOK 14/10 Q1020

Decode

TAF

Not found

Destination Runways

ID Width Length Bearing (true) Bearing (mag) Surface Threshold Offset Overrun Length
02 98 ft / 30 m 5,535 ft / 1,687 m 18.96° 14.41° Asphalt 190 ft / 58 m 0 ft / 0 m
20 98 ft / 30 m 5,535 ft / 1,687 m 198.97° 194.42° Asphalt 0 ft / 0 m 242 ft / 74 m

Popular Alternatives